PWSweather.com
Personal Weather Stations
Station Observations
KMAMEDFI2
Medfield, MA 02052

Medfield, MA 02052

Lat: 42.1900822, Lon: -71.3296889

Elevation: 138

Station Type: Rainwise WS MK-III

http://www.medfieldweather.com

High Low Average
Temperature 37.2°F2.9°C 9.1°F-12.7°C 21.7°F-5.7°C
Dew Point 23.6°F-4.7°C 7.2°F-13.8°C 15.9°F-8.9°C
Winds 5.8 mph 9.3 kmh Calm Calm 1.0 mph W1.6 kmh W
Wind Gusts 8.1 mph13.0 kmh -- 1.0 mph1.6 kmh
Humidity 93% 53% 80%
Pressure 30.05 in1017.6 mb 29.96 in1014.6 mb -
Precipitation 0.00 in0.0 mm - -
Hour Temp Dew Point Humidity Winds Wind Gusts Pressure Precip Precip Rate Daily Precip Total
12:00 AM 13.9°F-10.1°C 12.3°F-10.9°C 93% Calm Calm -- 30.02 in1016.6 mb - 0.00 in0.0 mm 0.00 in0.0 mm
12:10 AM 14.6°F-9.7°C 12.9°F-10.6°C 93% Calm Calm -- 30.02 in1016.6 mb - 0.00 in0.0 mm 0.00 in0.0 mm
12:20 AM 14.4°F-9.8°C 12.8°F-10.7°C 93% Calm Calm -- 30.01 in1016.3 mb - 0.00 in0.0 mm 0.00 in0.0 mm
12:30 AM 14.3°F-9.8°C 12.6°F-10.8°C 93% Calm Calm -- 30.01 in1016.3 mb - 0.00 in0.0 mm 0.00 in0.0 mm
12:40 AM 14.7°F-9.6°C 13.0°F-10.6°C 93% Calm Calm -- 30.01 in1016.3 mb - 0.00 in0.0 mm 0.00 in0.0 mm
12:50 AM 15.2°F-9.3°C 13.5°F-10.3°C 93% Calm Calm -- 30.00 in1015.9 mb - 0.00 in0.0 mm 0.00 in0.0 mm
01:00 AM 15.4°F-9.2°C 13.7°F-10.2°C 93% Calm Calm -- 30.00 in1015.9 mb - 0.00 in0.0 mm 0.00 in0.0 mm
01:10 AM 15.6°F-9.1°C 13.9°F-10.1°C 93% Calm Calm -- 30.00 in1015.9 mb - 0.00 in0.0 mm 0.00 in0.0 mm
01:20 AM 15.9°F-8.9°C 14.2°F-9.9°C 93% Calm Calm -- 30.00 in1015.9 mb - 0.00 in0.0 mm 0.00 in0.0 mm
01:30 AM 15.9°F-8.9°C 14.2°F-9.9°C 93% Calm Calm -- 30.00 in1015.9 mb - 0.00 in0.0 mm 0.00 in0.0 mm
01:40 AM 15.6°F-9.1°C 14.0°F-10.0°C 93% Calm Calm -- 30.00 in1015.9 mb - 0.00 in0.0 mm 0.00 in0.0 mm
01:50 AM 15.5°F-9.2°C 13.8°F-10.1°C 93% Calm Calm -- 30.00 in1015.9 mb - 0.00 in0.0 mm 0.00 in0.0 mm
02:00 AM 15.5°F-9.2°C 13.8°F-10.1°C 93% Calm Calm -- 30.00 in1015.9 mb - 0.00 in0.0 mm 0.00 in0.0 mm
02:10 AM 15.4°F-9.2°C 13.7°F-10.2°C 93% Calm Calm -- 30.00 in1015.9 mb - 0.00 in0.0 mm 0.00 in0.0 mm
02:20 AM 15.5°F-9.2°C 13.8°F-10.1°C 93% Calm Calm -- 29.99 in1015.6 mb - 0.00 in0.0 mm 0.00 in0.0 mm
02:30 AM 15.3°F-9.3°C 13.7°F-10.2°C 93% Calm Calm -- 29.99 in1015.6 mb - 0.00 in0.0 mm 0.00 in0.0 mm
02:40 AM 14.8°F-9.6°C 13.2°F-10.4°C 93% Calm Calm -- 29.99 in1015.6 mb - 0.00 in0.0 mm 0.00 in0.0 mm
02:50 AM 14.0°F-10.0°C 12.4°F-10.9°C 93% Calm Calm -- 29.99 in1015.6 mb - 0.00 in0.0 mm 0.00 in0.0 mm
03:00 AM 13.9°F-10.1°C 12.2°F-11.0°C 93% Calm Calm -- 29.98 in1015.2 mb - 0.00 in0.0 mm 0.00 in0.0 mm
03:10 AM 13.3°F-10.4°C 11.6°F-11.3°C 93% Calm Calm -- 29.98 in1015.2 mb - 0.00 in0.0 mm 0.00 in0.0 mm
03:20 AM 12.9°F-10.6°C 11.2°F-11.6°C 93% Calm Calm -- 29.98 in1015.2 mb - 0.00 in0.0 mm 0.00 in0.0 mm
03:30 AM 12.5°F-10.8°C 10.8°F-11.8°C 93% Calm Calm -- 29.98 in1015.2 mb - 0.00 in0.0 mm 0.00 in0.0 mm
03:40 AM 12.3°F-10.9°C 10.6°F-11.9°C 93% Calm Calm -- 29.98 in1015.2 mb - 0.00 in0.0 mm 0.00 in0.0 mm
03:50 AM 11.7°F-11.3°C 10.1°F-12.2°C 93% Calm Calm -- 29.98 in1015.2 mb - 0.00 in0.0 mm 0.00 in0.0 mm
04:00 AM 12.1°F-11.1°C 10.5°F-11.9°C 93% Calm Calm -- 29.97 in1014.9 mb - 0.00 in0.0 mm 0.00 in0.0 mm
04:10 AM 12.4°F-10.9°C 10.8°F-11.8°C 93% Calm Calm -- 29.97 in1014.9 mb - 0.00 in0.0 mm 0.00 in0.0 mm
04:20 AM 12.8°F-10.7°C 11.1°F-11.6°C 93% Calm Calm -- 29.97 in1014.9 mb - 0.00 in0.0 mm 0.00 in0.0 mm
04:30 AM 12.6°F-10.8°C 10.9°F-11.7°C 93% Calm Calm -- 29.97 in1014.9 mb - 0.00 in0.0 mm 0.00 in0.0 mm
04:40 AM 11.9°F-11.2°C 10.2°F-12.1°C 93% Calm Calm -- 29.97 in1014.9 mb - 0.00 in0.0 mm 0.00 in0.0 mm
04:50 AM 12.1°F-11.1°C 10.5°F-11.9°C 93% Calm Calm -- 29.97 in1014.9 mb - 0.00 in0.0 mm 0.00 in0.0 mm
05:00 AM 12.6°F-10.8°C 10.9°F-11.7°C 93% Calm Calm -- 29.97 in1014.9 mb - 0.00 in0.0 mm 0.00 in0.0 mm
05:10 AM 12.4°F-10.9°C 10.7°F-11.8°C 93% Calm Calm -- 29.97 in1014.9 mb - 0.00 in0.0 mm 0.00 in0.0 mm
05:20 AM 11.8°F-11.2°C 10.1°F-12.2°C 93% Calm Calm -- 29.97 in1014.9 mb - 0.00 in0.0 mm 0.00 in0.0 mm
05:30 AM 11.2°F-11.6°C 9.6°F-12.4°C 93% Calm Calm -- 29.97 in1014.9 mb - 0.00 in0.0 mm 0.00 in0.0 mm
05:40 AM 10.8°F-11.8°C 8.9°F-12.8°C 92% Calm Calm -- 29.97 in1014.9 mb - 0.00 in0.0 mm 0.00 in0.0 mm
05:50 AM 10.8°F-11.8°C 8.9°F-12.8°C 92% Calm Calm -- 29.96 in1014.6 mb - 0.00 in0.0 mm 0.00 in0.0 mm
06:00 AM 11.1°F-11.6°C 9.4°F-12.6°C 93% Calm Calm -- 29.96 in1014.6 mb - 0.00 in0.0 mm 0.00 in0.0 mm
06:10 AM 10.7°F-11.8°C 8.8°F-12.9°C 92% Calm Calm -- 29.96 in1014.6 mb - 0.00 in0.0 mm 0.00 in0.0 mm
06:20 AM 10.4°F-12.0°C 8.5°F-13.1°C 92% Calm Calm -- 29.97 in1014.9 mb - 0.00 in0.0 mm 0.00 in0.0 mm
06:30 AM 10.6°F-11.9°C 8.7°F-12.9°C 92% Calm Calm -- 29.96 in1014.6 mb - 0.00 in0.0 mm 0.00 in0.0 mm
06:40 AM 10.3°F-12.1°C 8.4°F-13.1°C 92% Calm Calm -- 29.97 in1014.9 mb - 0.00 in0.0 mm 0.00 in0.0 mm
06:50 AM 10.1°F-12.2°C 8.2°F-13.2°C 92% Calm Calm -- 29.98 in1015.2 mb - 0.00 in0.0 mm 0.00 in0.0 mm
07:00 AM 10.4°F-12.0°C 8.5°F-13.1°C 92% Calm Calm -- 29.98 in1015.2 mb - 0.00 in0.0 mm 0.00 in0.0 mm
07:10 AM 10.8°F-11.8°C 8.9°F-12.8°C 92% Calm Calm -- 29.97 in1014.9 mb - 0.00 in0.0 mm 0.00 in0.0 mm
07:20 AM 10.4°F-12.0°C 8.5°F-13.1°C 92% Calm Calm -- 29.98 in1015.2 mb - 0.00 in0.0 mm 0.00 in0.0 mm
07:30 AM 9.9°F-12.3°C 8.0°F-13.3°C 92% Calm Calm -- 29.99 in1015.6 mb - 0.00 in0.0 mm 0.00 in0.0 mm
07:40 AM 9.6°F-12.4°C 7.7°F-13.5°C 92% Calm Calm -- 29.99 in1015.6 mb - 0.00 in0.0 mm 0.00 in0.0 mm
07:50 AM 9.3°F-12.6°C 7.4°F-13.7°C 92% Calm Calm -- 29.99 in1015.6 mb - 0.00 in0.0 mm 0.00 in0.0 mm
08:00 AM 9.1°F-12.7°C 7.2°F-13.8°C 92% Calm Calm -- 29.99 in1015.6 mb - 0.00 in0.0 mm 0.00 in0.0 mm
08:10 AM 9.6°F-12.4°C 7.7°F-13.5°C 92% Calm Calm -- 29.99 in1015.6 mb - 0.00 in0.0 mm 0.00 in0.0 mm
08:20 AM 9.8°F-12.3°C 7.9°F-13.4°C 92% Calm Calm -- 29.99 in1015.6 mb - 0.00 in0.0 mm 0.00 in0.0 mm
08:30 AM 9.8°F-12.3°C 7.9°F-13.4°C 92% Calm Calm -- 29.99 in1015.6 mb - 0.00 in0.0 mm 0.00 in0.0 mm
08:40 AM 10.2°F-12.1°C 8.3°F-13.2°C 92% Calm Calm -- 29.99 in1015.6 mb - 0.00 in0.0 mm 0.00 in0.0 mm
08:50 AM 10.8°F-11.8°C 8.9°F-12.8°C 92% Calm Calm -- 29.99 in1015.6 mb - 0.00 in0.0 mm 0.00 in0.0 mm
09:00 AM 11.5°F-11.4°C 9.9°F-12.3°C 93% Calm Calm -- 30.00 in1015.9 mb - 0.00 in0.0 mm 0.00 in0.0 mm
09:10 AM 12.6°F-10.8°C 10.9°F-11.7°C 93% Calm Calm -- 30.00 in1015.9 mb - 0.00 in0.0 mm 0.00 in0.0 mm
09:20 AM 14.4°F-9.8°C 12.7°F-10.7°C 93% Calm Calm -- 30.00 in1015.9 mb - 0.00 in0.0 mm 0.00 in0.0 mm
09:30 AM 15.8°F-9.0°C 14.1°F-9.9°C 93% Calm Calm -- 30.01 in1016.3 mb - 0.00 in0.0 mm 0.00 in0.0 mm
09:40 AM 17.4°F-8.1°C 15.7°F-9.1°C 93% Calm Calm -- 30.01 in1016.3 mb - 0.00 in0.0 mm 0.00 in0.0 mm
09:50 AM 18.7°F-7.4°C 17.0°F-8.3°C 93% Calm Calm -- 30.01 in1016.3 mb - 0.00 in0.0 mm 0.00 in0.0 mm
10:00 AM 20.4°F-6.4°C 18.7°F-7.4°C 93% Calm Calm -- 30.02 in1016.6 mb - 0.00 in0.0 mm 0.00 in0.0 mm
10:10 AM 22.2°F-5.4°C 16.6°F-8.6°C 79% 1.2 mph SW1.9 kmh SW 2.3 mph3.7 kmh 30.02 in1016.6 mb - 0.00 in0.0 mm 0.00 in0.0 mm
10:20 AM 23.4°F-4.8°C 16.4°F-8.7°C 74% 1.2 mph WSW1.9 kmh WSW 2.3 mph3.7 kmh 30.02 in1016.6 mb - 0.00 in0.0 mm 0.00 in0.0 mm
10:30 AM 24.1°F-4.4°C 14.8°F-9.6°C 67% 2.3 mph NW3.7 kmh NW 5.8 mph9.3 kmh 30.03 in1016.9 mb - 0.00 in0.0 mm 0.00 in0.0 mm
10:40 AM 24.9°F-3.9°C 13.3°F-10.4°C 61% 3.5 mph NW5.6 kmh NW 3.5 mph5.6 kmh 30.04 in1017.3 mb - 0.00 in0.0 mm 0.00 in0.0 mm
10:50 AM 25.5°F-3.6°C 13.6°F-10.2°C 60% 1.2 mph SW1.9 kmh SW 2.3 mph3.7 kmh 30.04 in1017.3 mb - 0.00 in0.0 mm 0.00 in0.0 mm
11:00 AM 26.3°F-3.2°C 13.9°F-10.1°C 59% 4.6 mph NNE7.4 kmh NNE 5.8 mph9.3 kmh 30.04 in1017.3 mb - 0.00 in0.0 mm 0.00 in0.0 mm
11:10 AM 27.3°F-2.6°C 14.1°F-9.9°C 57% 4.6 mph WSW7.4 kmh WSW 6.9 mph11.1 kmh 30.04 in1017.3 mb - 0.00 in0.0 mm 0.00 in0.0 mm
11:20 AM 27.6°F-2.4°C 15.9°F-8.9°C 61% Calm Calm 5.8 mph9.3 kmh 30.04 in1017.3 mb - 0.00 in0.0 mm 0.00 in0.0 mm
11:30 AM 28.7°F-1.8°C 16.2°F-8.8°C 59% 3.5 mph NW5.6 kmh NW 8.1 mph13.0 kmh 30.04 in1017.3 mb - 0.00 in0.0 mm 0.00 in0.0 mm
11:40 AM 30.3°F-0.9°C 16.5°F-8.6°C 56% 4.6 mph WSW7.4 kmh WSW 6.9 mph11.1 kmh 30.05 in1017.6 mb - 0.00 in0.0 mm 0.00 in0.0 mm
11:50 AM 31.0°F-0.6°C 17.1°F-8.3°C 56% 3.5 mph W5.6 kmh W 8.1 mph13.0 kmh 30.05 in1017.6 mb - 0.00 in0.0 mm 0.00 in0.0 mm
12:00 PM 31.4°F-0.3°C 17.5°F-8.1°C 56% 2.3 mph NE3.7 kmh NE 1.2 mph1.9 kmh 30.05 in1017.6 mb - 0.00 in0.0 mm 0.00 in0.0 mm
12:10 PM 32.4°F0.2°C 17.6°F-8.0°C 54% 5.8 mph WNW9.3 kmh WNW 8.1 mph13.0 kmh 30.05 in1017.6 mb - 0.00 in0.0 mm 0.00 in0.0 mm
12:20 PM 32.5°F0.3°C 17.7°F-7.9°C 54% 3.5 mph WSW5.6 kmh WSW 2.3 mph3.7 kmh 30.05 in1017.6 mb - 0.00 in0.0 mm 0.00 in0.0 mm
12:30 PM 32.6°F0.3°C 18.2°F-7.7°C 55% 2.3 mph W3.7 kmh W 8.1 mph13.0 kmh 30.04 in1017.3 mb - 0.00 in0.0 mm 0.00 in0.0 mm
12:40 PM 32.8°F0.4°C 18.4°F-7.6°C 55% 3.5 mph WSW5.6 kmh WSW 3.5 mph5.6 kmh 30.04 in1017.3 mb - 0.00 in0.0 mm 0.00 in0.0 mm
12:50 PM 33.5°F0.8°C 18.2°F-7.7°C 53% 3.5 mph NW5.6 kmh NW 3.5 mph5.6 kmh 30.03 in1016.9 mb - 0.00 in0.0 mm 0.00 in0.0 mm
01:00 PM 33.5°F0.8°C 19.1°F-7.2°C 55% 5.8 mph WSW9.3 kmh WSW 5.8 mph9.3 kmh 30.03 in1016.9 mb - 0.00 in0.0 mm 0.00 in0.0 mm
01:10 PM 34.1°F1.2°C 19.6°F-6.9°C 55% 4.6 mph W7.4 kmh W 5.8 mph9.3 kmh 30.03 in1016.9 mb - 0.00 in0.0 mm 0.00 in0.0 mm
01:20 PM 34.6°F1.4°C 19.6°F-6.9°C 54% 2.3 mph NW3.7 kmh NW 5.8 mph9.3 kmh 30.03 in1016.9 mb - 0.00 in0.0 mm 0.00 in0.0 mm
01:30 PM 35.2°F1.8°C 20.6°F-6.3°C 55% 2.3 mph NW3.7 kmh NW 2.3 mph3.7 kmh 30.02 in1016.6 mb - 0.00 in0.0 mm 0.00 in0.0 mm
01:40 PM 35.4°F1.9°C 20.4°F-6.4°C 54% 3.5 mph W5.6 kmh W 5.8 mph9.3 kmh 30.02 in1016.6 mb - 0.00 in0.0 mm 0.00 in0.0 mm
01:50 PM 35.6°F2.0°C 21.4°F-5.9°C 56% 2.3 mph NW3.7 kmh NW 2.3 mph3.7 kmh 30.02 in1016.6 mb - 0.00 in0.0 mm 0.00 in0.0 mm
02:00 PM 36.7°F2.6°C 22.1°F-5.5°C 55% 1.2 mph SE1.9 kmh SE 2.3 mph3.7 kmh 30.02 in1016.6 mb - 0.00 in0.0 mm 0.00 in0.0 mm
02:10 PM 36.9°F2.7°C 21.8°F-5.7°C 54% 3.5 mph ENE5.6 kmh ENE 2.3 mph3.7 kmh 30.02 in1016.6 mb - 0.00 in0.0 mm 0.00 in0.0 mm
02:20 PM 37.2°F2.9°C 22.5°F-5.3°C 55% 2.3 mph W3.7 kmh W 2.3 mph3.7 kmh 30.02 in1016.6 mb - 0.00 in0.0 mm 0.00 in0.0 mm
02:30 PM 36.9°F2.7°C 22.7°F-5.2°C 56% 2.3 mph SSW3.7 kmh SSW 3.5 mph5.6 kmh 30.02 in1016.6 mb - 0.00 in0.0 mm 0.00 in0.0 mm
02:40 PM 37.0°F2.8°C 22.8°F-5.1°C 56% 4.6 mph NNW7.4 kmh NNW 5.8 mph9.3 kmh 30.02 in1016.6 mb - 0.00 in0.0 mm 0.00 in0.0 mm
02:50 PM 37.2°F2.9°C 23.4°F-4.8°C 57% 3.5 mph WNW5.6 kmh WNW 2.3 mph3.7 kmh 30.02 in1016.6 mb - 0.00 in0.0 mm 0.00 in0.0 mm
03:00 PM 36.8°F2.7°C 23.4°F-4.8°C 58% 3.5 mph WNW5.6 kmh WNW 2.3 mph3.7 kmh 30.02 in1016.6 mb - 0.00 in0.0 mm 0.00 in0.0 mm
03:10 PM 36.5°F2.5°C 23.1°F-4.9°C 58% 4.6 mph NW7.4 kmh NW 5.8 mph9.3 kmh 30.03 in1016.9 mb - 0.00 in0.0 mm 0.00 in0.0 mm
03:20 PM 36.6°F2.6°C 23.6°F-4.7°C 59% 5.8 mph W9.3 kmh W 5.8 mph9.3 kmh 30.03 in1016.9 mb - 0.00 in0.0 mm 0.00 in0.0 mm
03:30 PM 36.2°F2.3°C 23.2°F-4.9°C 59% 4.6 mph WSW7.4 kmh WSW 8.1 mph13.0 kmh 30.03 in1016.9 mb - 0.00 in0.0 mm 0.00 in0.0 mm
03:40 PM 36.1°F2.3°C 23.2°F-4.9°C 59% 2.3 mph WSW3.7 kmh WSW 8.1 mph13.0 kmh 30.03 in1016.9 mb - 0.00 in0.0 mm 0.00 in0.0 mm
03:50 PM 36.0°F2.2°C 23.1°F-4.9°C 59% 3.5 mph W5.6 kmh W 2.3 mph3.7 kmh 30.03 in1016.9 mb - 0.00 in0.0 mm 0.00 in0.0 mm
04:00 PM 35.9°F2.2°C 22.9°F-5.1°C 59% 3.5 mph WSW5.6 kmh WSW 2.3 mph3.7 kmh 30.03 in1016.9 mb - 0.00 in0.0 mm 0.00 in0.0 mm
04:10 PM 35.8°F2.1°C 22.9°F-5.1°C 59% 3.5 mph WSW5.6 kmh WSW 5.8 mph9.3 kmh 30.03 in1016.9 mb - 0.00 in0.0 mm 0.00 in0.0 mm
04:20 PM 35.5°F1.9°C 22.6°F-5.2°C 59% 3.5 mph WNW5.6 kmh WNW 5.8 mph9.3 kmh 30.03 in1016.9 mb - 0.00 in0.0 mm 0.00 in0.0 mm
04:30 PM 35.2°F1.8°C 22.3°F-5.4°C 59% 2.3 mph NE3.7 kmh NE 2.3 mph3.7 kmh 30.03 in1016.9 mb - 0.00 in0.0 mm 0.00 in0.0 mm
04:40 PM 34.9°F1.6°C 22.8°F-5.1°C 61% 1.2 mph SW1.9 kmh SW 2.3 mph3.7 kmh 30.03 in1016.9 mb - 0.00 in0.0 mm 0.00 in0.0 mm
04:50 PM 34.6°F1.4°C 22.1°F-5.5°C 60% 3.5 mph W5.6 kmh W 5.8 mph9.3 kmh 30.03 in1016.9 mb - 0.00 in0.0 mm 0.00 in0.0 mm
05:00 PM 34.2°F1.2°C 21.7°F-5.7°C 60% 4.6 mph WNW7.4 kmh WNW 6.9 mph11.1 kmh 30.03 in1016.9 mb - 0.00 in0.0 mm 0.00 in0.0 mm
05:10 PM 33.7°F0.9°C 22.1°F-5.5°C 62% 2.3 mph W3.7 kmh W 2.3 mph3.7 kmh 30.03 in1016.9 mb - 0.00 in0.0 mm 0.00 in0.0 mm
05:20 PM 33.4°F0.8°C 21.8°F-5.7°C 62% 3.5 mph WNW5.6 kmh WNW 2.3 mph3.7 kmh 30.03 in1016.9 mb - 0.00 in0.0 mm 0.00 in0.0 mm
05:30 PM 33.0°F0.6°C 21.8°F-5.7°C 63% 2.3 mph NNW3.7 kmh NNW 2.3 mph3.7 kmh 30.03 in1016.9 mb - 0.00 in0.0 mm 0.00 in0.0 mm
05:40 PM 32.2°F0.1°C 21.8°F-5.7°C 65% Calm Calm -- 30.03 in1016.9 mb - 0.00 in0.0 mm 0.00 in0.0 mm
05:50 PM 31.3°F-0.4°C 20.9°F-6.2°C 65% 1.2 mph W1.9 kmh W 2.3 mph3.7 kmh 30.03 in1016.9 mb - 0.00 in0.0 mm 0.00 in0.0 mm
06:00 PM 30.4°F-0.9°C 21.1°F-6.1°C 68% Calm Calm -- 30.03 in1016.9 mb - 0.00 in0.0 mm 0.00 in0.0 mm
06:10 PM 29.7°F-1.3°C 20.8°F-6.2°C 69% Calm Calm -- 30.03 in1016.9 mb - 0.00 in0.0 mm 0.00 in0.0 mm
06:20 PM 28.9°F-1.7°C 21.0°F-6.1°C 72% Calm Calm -- 30.03 in1016.9 mb - 0.00 in0.0 mm 0.00 in0.0 mm
06:30 PM 27.5°F-2.5°C 20.0°F-6.7°C 73% Calm Calm -- 30.03 in1016.9 mb - 0.00 in0.0 mm 0.00 in0.0 mm
06:40 PM 26.2°F-3.2°C 19.4°F-7.0°C 75% Calm Calm -- 30.04 in1017.3 mb - 0.00 in0.0 mm 0.00 in0.0 mm
06:50 PM 24.8°F-4.0°C 18.9°F-7.3°C 78% Calm Calm -- 30.04 in1017.3 mb - 0.00 in0.0 mm 0.00 in0.0 mm
07:00 PM 23.8°F-4.6°C 18.9°F-7.3°C 81% Calm Calm -- 30.04 in1017.3 mb - 0.00 in0.0 mm 0.00 in0.0 mm
07:10 PM 23.8°F-4.6°C 19.1°F-7.2°C 82% Calm Calm -- 30.04 in1017.3 mb - 0.00 in0.0 mm 0.00 in0.0 mm
07:20 PM 23.8°F-4.6°C 19.1°F-7.2°C 82% Calm Calm -- 30.04 in1017.3 mb - 0.00 in0.0 mm 0.00 in0.0 mm
07:30 PM 23.7°F-4.6°C 19.6°F-6.9°C 84% Calm Calm -- 30.04 in1017.3 mb - 0.00 in0.0 mm 0.00 in0.0 mm
07:40 PM 23.6°F-4.7°C 19.2°F-7.1°C 83% Calm Calm -- 30.04 in1017.3 mb - 0.00 in0.0 mm 0.00 in0.0 mm
07:50 PM 23.2°F-4.9°C 18.8°F-7.3°C 83% Calm Calm -- 30.04 in1017.3 mb - 0.00 in0.0 mm 0.00 in0.0 mm
08:00 PM 22.5°F-5.3°C 19.0°F-7.2°C 86% Calm Calm -- 30.04 in1017.3 mb - 0.00 in0.0 mm 0.00 in0.0 mm
08:10 PM 22.4°F-5.3°C 18.9°F-7.3°C 86% Calm Calm -- 30.04 in1017.3 mb - 0.00 in0.0 mm 0.00 in0.0 mm
08:20 PM 22.7°F-5.2°C 19.1°F-7.2°C 86% Calm Calm -- 30.04 in1017.3 mb - 0.00 in0.0 mm 0.00 in0.0 mm
08:30 PM 22.9°F-5.1°C 19.6°F-6.9°C 87% Calm Calm -- 30.04 in1017.3 mb - 0.00 in0.0 mm 0.00 in0.0 mm
08:40 PM 22.5°F-5.3°C 19.5°F-6.9°C 88% Calm Calm -- 30.04 in1017.3 mb - 0.00 in0.0 mm 0.00 in0.0 mm
08:50 PM 22.0°F-5.6°C 19.0°F-7.2°C 88% Calm Calm -- 30.04 in1017.3 mb - 0.00 in0.0 mm 0.00 in0.0 mm
09:00 PM 21.6°F-5.8°C 19.1°F-7.2°C 90% Calm Calm -- 30.04 in1017.3 mb - 0.00 in0.0 mm 0.00 in0.0 mm
09:10 PM 20.8°F-6.2°C 18.9°F-7.3°C 92% Calm Calm -- 30.05 in1017.6 mb - 0.00 in0.0 mm 0.00 in0.0 mm
09:20 PM 20.4°F-6.4°C 18.7°F-7.4°C 93% Calm Calm -- 30.05 in1017.6 mb - 0.00 in0.0 mm 0.00 in0.0 mm
09:30 PM 20.3°F-6.5°C 18.6°F-7.4°C 93% Calm Calm -- 30.05 in1017.6 mb - 0.00 in0.0 mm 0.00 in0.0 mm
09:40 PM 19.8°F-6.8°C 18.1°F-7.7°C 93% Calm Calm -- 30.05 in1017.6 mb - 0.00 in0.0 mm 0.00 in0.0 mm
09:50 PM 19.1°F-7.2°C 17.4°F-8.1°C 93% Calm Calm -- 30.04 in1017.3 mb - 0.00 in0.0 mm 0.00 in0.0 mm
10:00 PM 19.2°F-7.1°C 17.6°F-8.0°C 93% Calm Calm -- 30.04 in1017.3 mb - 0.00 in0.0 mm 0.00 in0.0 mm
10:10 PM 19.4°F-7.0°C 17.7°F-7.9°C 93% Calm Calm -- 30.04 in1017.3 mb - 0.00 in0.0 mm 0.00 in0.0 mm
10:20 PM 19.3°F-7.1°C 17.6°F-8.0°C 93% Calm Calm -- 30.04 in1017.3 mb - 0.00 in0.0 mm 0.00 in0.0 mm
10:30 PM 18.4°F-7.6°C 16.8°F-8.4°C 93% Calm Calm -- 30.04 in1017.3 mb - 0.00 in0.0 mm 0.00 in0.0 mm
10:40 PM 18.7°F-7.4°C 17.1°F-8.3°C 93% Calm Calm -- 30.04 in1017.3 mb - 0.00 in0.0 mm 0.00 in0.0 mm
10:50 PM 18.8°F-7.3°C 17.1°F-8.3°C 93% Calm Calm -- 30.03 in1016.9 mb - 0.00 in0.0 mm 0.00 in0.0 mm
11:00 PM 18.8°F-7.3°C 17.1°F-8.3°C 93% Calm Calm -- 30.03 in1016.9 mb - 0.00 in0.0 mm 0.00 in0.0 mm
11:10 PM 17.9°F-7.8°C 16.2°F-8.8°C 93% Calm Calm -- 30.03 in1016.9 mb - 0.00 in0.0 mm 0.00 in0.0 mm
11:20 PM 17.5°F-8.1°C 15.8°F-9.0°C 93% Calm Calm -- 30.03 in1016.9 mb - 0.00 in0.0 mm 0.00 in0.0 mm
11:30 PM 17.5°F-8.1°C 15.8°F-9.0°C 93% Calm Calm -- 30.03 in1016.9 mb - 0.00 in0.0 mm 0.00 in0.0 mm
11:40 PM 17.3°F-8.2°C 15.6°F-9.1°C 93% Calm Calm -- 30.03 in1016.9 mb - 0.00 in0.0 mm 0.00 in0.0 mm
11:50 PM 17.1°F-8.3°C 15.4°F-9.2°C 93% Calm Calm -- 30.03 in1016.9 mb - 0.00 in0.0 mm 0.00 in0.0 mm